Walsh Station, California
Current Conditions -  °F | °C
As of 4:50 AM on Sunday 28 Dec 2014 (Local Time) from KMHR Reporting Station
Scattered Clouds Scattered Clouds  
Wind Chill: 34°   Ceiling: Unl
Heat Index: 34°   Visibility: 10mi
Dew Point: 34°   Wind: 3mph
Humidity: 100%   Direction: 70°ENE
Pressure: 30.33"   Gusts: NA
Location:  38.5421°N, 121.377°W
Report Text: KMHR 281250Z 07003KT 10SM SCT120 01/01 A3033
Loading
Personal Weather Stations






























Interactive Weather Map New forecast layout! Learn more

10-Day Weather Forecast

Advertisements
Track Severe Weather on mobile